sensor_id;sensor_type;location;lat;lon;timestamp;temperature;humidity
3954;DHT22;1991;48.682;9.030;2023-12-20T00:01:47;6.00;99.90
3954;DHT22;1991;48.682;9.030;2023-12-20T00:04:12;6.00;99.90
3954;DHT22;1991;48.682;9.030;2023-12-20T00:06:38;6.00;99.90
3954;DHT22;1991;48.682;9.030;2023-12-20T00:09:03;5.90;99.90
3954;DHT22;1991;48.682;9.030;2023-12-20T00:11:29;5.90;99.90
3954;DHT22;1991;48.682;9.030;2023-12-20T00:13:54;6.00;99.90
3954;DHT22;1991;48.682;9.030;2023-12-20T00:16:20;6.00;99.90
3954;DHT22;1991;48.682;9.030;2023-12-20T00:18:45;6.00;99.90
3954;DHT22;1991;48.682;9.030;2023-12-20T00:21:11;6.00;99.90
3954;DHT22;1991;48.682;9.030;2023-12-20T00:23:36;6.00;99.90
3954;DHT22;1991;48.682;9.030;2023-12-20T00:26:02;6.00;99.90
3954;DHT22;1991;48.682;9.030;2023-12-20T00:28:28;6.00;99.90
3954;DHT22;1991;48.682;9.030;2023-12-20T00:30:53;5.90;99.90
3954;DHT22;1991;48.682;9.030;2023-12-20T00:33:19;5.90;99.90
3954;DHT22;1991;48.682;9.030;2023-12-20T00:35:44;5.90;99.90
3954;DHT22;1991;48.682;9.030;2023-12-20T00:38:10;5.90;99.90
3954;DHT22;1991;48.682;9.030;2023-12-20T00:40:36;5.90;99.90
3954;DHT22;1991;48.682;9.030;2023-12-20T00:43:02;5.80;99.90
3954;DHT22;1991;48.682;9.030;2023-12-20T00:45:28;5.90;99.90
3954;DHT22;1991;48.682;9.030;2023-12-20T00:47:53;5.80;99.90
3954;DHT22;1991;48.682;9.030;2023-12-20T00:50:19;5.80;99.90
3954;DHT22;1991;48.682;9.030;2023-12-20T00:52:47;5.80;99.90
3954;DHT22;1991;48.682;9.030;2023-12-20T00:55:12;5.80;99.90
3954;DHT22;1991;48.682;9.030;2023-12-20T00:57:38;5.80;99.90
3954;DHT22;1991;48.682;9.030;2023-12-20T01:00:04;5.80;99.90
3954;DHT22;1991;48.682;9.030;2023-12-20T01:02:30;5.70;99.90
3954;DHT22;1991;48.682;9.030;2023-12-20T01:04:56;5.70;99.90
3954;DHT22;1991;48.682;9.030;2023-12-20T01:07:21;5.70;99.90
3954;DHT22;1991;48.682;9.030;2023-12-20T01:09:47;5.70;99.90
3954;DHT22;1991;48.682;9.030;2023-12-20T01:12:12;5.70;99.90
3954;DHT22;1991;48.682;9.030;2023-12-20T01:14:38;5.70;99.90
3954;DHT22;1991;48.682;9.030;2023-12-20T01:17:05;5.70;99.90
3954;DHT22;1991;48.682;9.030;2023-12-20T01:19:30;5.60;99.90
3954;DHT22;1991;48.682;9.030;2023-12-20T01:21:59;5.60;99.90
3954;DHT22;1991;48.682;9.030;2023-12-20T01:24:24;5.60;99.90
3954;DHT22;1991;48.682;9.030;2023-12-20T01:26:50;5.60;99.90
3954;DHT22;1991;48.682;9.030;2023-12-20T01:29:15;5.60;99.90
3954;DHT22;1991;48.682;9.030;2023-12-20T01:31:41;5.60;99.90
3954;DHT22;1991;48.682;9.030;2023-12-20T01:34:07;5.70;99.90
3954;DHT22;1991;48.682;9.030;2023-12-20T01:36:32;5.60;99.90
3954;DHT22;1991;48.682;9.030;2023-12-20T01:38:58;5.70;99.90
3954;DHT22;1991;48.682;9.030;2023-12-20T01:41:23;5.70;99.90
3954;DHT22;1991;48.682;9.030;2023-12-20T01:43:49;5.70;99.90
3954;DHT22;1991;48.682;9.030;2023-12-20T01:46:15;5.70;99.90
3954;DHT22;1991;48.682;9.030;2023-12-20T01:48:41;5.80;99.90
3954;DHT22;1991;48.682;9.030;2023-12-20T01:51:07;5.80;99.90
3954;DHT22;1991;48.682;9.030;2023-12-20T01:53:33;5.80;99.90
3954;DHT22;1991;48.682;9.030;2023-12-20T01:55:59;5.80;99.90
3954;DHT22;1991;48.682;9.030;2023-12-20T01:58:25;5.80;99.90
3954;DHT22;1991;48.682;9.030;2023-12-20T02:00:51;5.80;99.90
3954;DHT22;1991;48.682;9.030;2023-12-20T02:03:17;5.80;99.90
3954;DHT22;1991;48.682;9.030;2023-12-20T02:05:44;5.80;99.90
3954;DHT22;1991;48.682;9.030;2023-12-20T02:08:10;5.80;99.90
3954;DHT22;1991;48.682;9.030;2023-12-20T02:10:36;5.80;99.90
3954;DHT22;1991;48.682;9.030;2023-12-20T02:13:02;5.80;99.90
3954;DHT22;1991;48.682;9.030;2023-12-20T02:15:28;5.70;99.90
3954;DHT22;1991;48.682;9.030;2023-12-20T02:17:54;5.70;99.90
3954;DHT22;1991;48.682;9.030;2023-12-20T02:20:20;5.70;99.90
3954;DHT22;1991;48.682;9.030;2023-12-20T02:22:45;5.70;99.90
3954;DHT22;1991;48.682;9.030;2023-12-20T02:25:11;5.70;99.90
3954;DHT22;1991;48.682;9.030;2023-12-20T02:27:37;5.80;99.90
3954;DHT22;1991;48.682;9.030;2023-12-20T02:30:03;5.80;99.90
3954;DHT22;1991;48.682;9.030;2023-12-20T02:32:29;5.80;99.90
3954;DHT22;1991;48.682;9.030;2023-12-20T02:34:55;5.70;99.90
3954;DHT22;1991;48.682;9.030;2023-12-20T02:37:21;5.70;99.90
3954;DHT22;1991;48.682;9.030;2023-12-20T02:39:46;5.70;99.90
3954;DHT22;1991;48.682;9.030;2023-12-20T02:42:12;5.60;99.90
3954;DHT22;1991;48.682;9.030;2023-12-20T02:44:37;5.70;99.90
3954;DHT22;1991;48.682;9.030;2023-12-20T02:47:03;5.70;99.90
3954;DHT22;1991;48.682;9.030;2023-12-20T02:49:29;5.70;99.90
3954;DHT22;1991;48.682;9.030;2023-12-20T02:51:54;5.70;99.90
3954;DHT22;1991;48.682;9.030;2023-12-20T02:54:20;5.60;99.90
3954;DHT22;1991;48.682;9.030;2023-12-20T02:56:45;5.70;99.90
3954;DHT22;1991;48.682;9.030;2023-12-20T02:59:11;5.60;99.90
3954;DHT22;1991;48.682;9.030;2023-12-20T03:01:45;5.60;99.90
3954;DHT22;1991;48.682;9.030;2023-12-20T03:04:11;5.70;99.90
3954;DHT22;1991;48.682;9.030;2023-12-20T03:06:37;5.70;99.90
3954;DHT22;1991;48.682;9.030;2023-12-20T03:09:02;5.60;99.90
3954;DHT22;1991;48.682;9.030;2023-12-20T03:11:28;5.70;99.90
3954;DHT22;1991;48.682;9.030;2023-12-20T03:13:54;5.70;99.90
3954;DHT22;1991;48.682;9.030;2023-12-20T03:16:20;5.70;99.90
3954;DHT22;1991;48.682;9.030;2023-12-20T03:18:46;5.70;99.90
3954;DHT22;1991;48.682;9.030;2023-12-20T03:21:11;5.70;99.90
3954;DHT22;1991;48.682;9.030;2023-12-20T03:23:37;5.70;99.90
3954;DHT22;1991;48.682;9.030;2023-12-20T03:26:02;5.60;99.90
3954;DHT22;1991;48.682;9.030;2023-12-20T03:28:29;5.60;99.90
3954;DHT22;1991;48.682;9.030;2023-12-20T03:30:54;5.60;99.90
3954;DHT22;1991;48.682;9.030;2023-12-20T03:33:20;5.60;99.90
3954;DHT22;1991;48.682;9.030;2023-12-20T03:35:46;5.60;99.90
3954;DHT22;1991;48.682;9.030;2023-12-20T03:38:11;5.60;99.90
3954;DHT22;1991;48.682;9.030;2023-12-20T03:40:37;5.60;99.90
3954;DHT22;1991;48.682;9.030;2023-12-20T03:43:02;5.70;99.90
3954;DHT22;1991;48.682;9.030;2023-12-20T03:45:28;5.60;99.90
3954;DHT22;1991;48.682;9.030;2023-12-20T03:47:53;5.60;99.90
3954;DHT22;1991;48.682;9.030;2023-12-20T03:50:22;5.50;99.90
3954;DHT22;1991;48.682;9.030;2023-12-20T03:52:48;5.50;99.90
3954;DHT22;1991;48.682;9.030;2023-12-20T03:55:14;5.50;99.90
3954;DHT22;1991;48.682;9.030;2023-12-20T03:57:39;5.50;99.90
3954;DHT22;1991;48.682;9.030;2023-12-20T04:00:06;5.50;99.90
3954;DHT22;1991;48.682;9.030;2023-12-20T04:02:36;5.50;99.90
3954;DHT22;1991;48.682;9.030;2023-12-20T04:05:01;5.50;99.90
3954;DHT22;1991;48.682;9.030;2023-12-20T04:07:27;5.50;99.90
3954;DHT22;1991;48.682;9.030;2023-12-20T04:09:53;5.50;99.90
3954;DHT22;1991;48.682;9.030;2023-12-20T04:12:18;5.40;99.90
3954;DHT22;1991;48.682;9.030;2023-12-20T04:14:44;5.40;99.90
3954;DHT22;1991;48.682;9.030;2023-12-20T04:17:09;5.40;99.90
3954;DHT22;1991;48.682;9.030;2023-12-20T04:19:35;5.40;99.90
3954;DHT22;1991;48.682;9.030;2023-12-20T04:22:00;5.40;99.90
3954;DHT22;1991;48.682;9.030;2023-12-20T04:24:26;5.30;99.90
3954;DHT22;1991;48.682;9.030;2023-12-20T04:26:51;5.30;99.90
3954;DHT22;1991;48.682;9.030;2023-12-20T04:29:17;5.30;99.90
3954;DHT22;1991;48.682;9.030;2023-12-20T04:31:42;5.30;99.90
3954;DHT22;1991;48.682;9.030;2023-12-20T04:34:08;5.30;99.90
3954;DHT22;1991;48.682;9.030;2023-12-20T04:36:34;5.20;99.90
3954;DHT22;1991;48.682;9.030;2023-12-20T04:39:00;5.20;99.90
3954;DHT22;1991;48.682;9.030;2023-12-20T04:41:25;5.20;99.90
3954;DHT22;1991;48.682;9.030;2023-12-20T04:43:53;5.20;99.90
3954;DHT22;1991;48.682;9.030;2023-12-20T04:46:18;5.20;99.90
3954;DHT22;1991;48.682;9.030;2023-12-20T04:48:44;5.20;99.90
3954;DHT22;1991;48.682;9.030;2023-12-20T04:51:09;5.20;99.90
3954;DHT22;1991;48.682;9.030;2023-12-20T04:53:35;5.10;99.90
3954;DHT22;1991;48.682;9.030;2023-12-20T04:56:00;5.10;99.90
3954;DHT22;1991;48.682;9.030;2023-12-20T04:58:26;5.10;99.90
3954;DHT22;1991;48.682;9.030;2023-12-20T05:00:52;5.10;99.90
3954;DHT22;1991;48.682;9.030;2023-12-20T05:03:17;5.20;99.90
3954;DHT22;1991;48.682;9.030;2023-12-20T05:05:43;5.20;99.90
3954;DHT22;1991;48.682;9.030;2023-12-20T05:08:08;5.10;99.90
3954;DHT22;1991;48.682;9.030;2023-12-20T05:10:34;5.10;99.90
3954;DHT22;1991;48.682;9.030;2023-12-20T05:13:00;5.10;99.90
3954;DHT22;1991;48.682;9.030;2023-12-20T05:15:26;5.20;99.90
3954;DHT22;1991;48.682;9.030;2023-12-20T05:17:51;5.10;99.90
3954;DHT22;1991;48.682;9.030;2023-12-20T05:20:17;5.10;99.90
3954;DHT22;1991;48.682;9.030;2023-12-20T05:22:42;5.10;99.90
3954;DHT22;1991;48.682;9.030;2023-12-20T05:25:08;5.20;99.90
3954;DHT22;1991;48.682;9.030;2023-12-20T05:27:34;5.10;99.90
3954;DHT22;1991;48.682;9.030;2023-12-20T05:29:59;5.10;99.90
3954;DHT22;1991;48.682;9.030;2023-12-20T05:32:25;5.10;99.90
3954;DHT22;1991;48.682;9.030;2023-12-20T05:34:50;5.10;99.90
3954;DHT22;1991;48.682;9.030;2023-12-20T05:37:16;5.10;99.90
3954;DHT22;1991;48.682;9.030;2023-12-20T05:39:42;5.10;99.90
3954;DHT22;1991;48.682;9.030;2023-12-20T05:42:07;5.20;99.90
3954;DHT22;1991;48.682;9.030;2023-12-20T05:44:33;5.20;99.90
3954;DHT22;1991;48.682;9.030;2023-12-20T05:46:58;5.20;99.90
3954;DHT22;1991;48.682;9.030;2023-12-20T05:49:24;5.20;99.90
3954;DHT22;1991;48.682;9.030;2023-12-20T05:51:49;5.30;99.90
3954;DHT22;1991;48.682;9.030;2023-12-20T05:54:16;5.20;99.90
3954;DHT22;1991;48.682;9.030;2023-12-20T05:56:42;5.20;99.90
3954;DHT22;1991;48.682;9.030;2023-12-20T05:59:07;5.20;99.90
3954;DHT22;1991;48.682;9.030;2023-12-20T06:01:33;5.20;99.90
3954;DHT22;1991;48.682;9.030;2023-12-20T06:03:58;5.20;99.90
3954;DHT22;1991;48.682;9.030;2023-12-20T06:06:24;5.20;99.90
3954;DHT22;1991;48.682;9.030;2023-12-20T06:08:50;5.20;99.90
3954;DHT22;1991;48.682;9.030;2023-12-20T06:11:15;5.20;99.90
3954;DHT22;1991;48.682;9.030;2023-12-20T06:13:41;5.20;99.90
3954;DHT22;1991;48.682;9.030;2023-12-20T06:16:06;5.20;99.90
3954;DHT22;1991;48.682;9.030;2023-12-20T06:18:35;5.20;99.90
3954;DHT22;1991;48.682;9.030;2023-12-20T06:21:02;5.20;99.90
3954;DHT22;1991;48.682;9.030;2023-12-20T06:23:27;5.20;99.90
3954;DHT22;1991;48.682;9.030;2023-12-20T06:25:53;5.20;99.90
3954;DHT22;1991;48.682;9.030;2023-12-20T06:28:19;5.20;99.90
3954;DHT22;1991;48.682;9.030;2023-12-20T06:30:44;5.20;99.90
3954;DHT22;1991;48.682;9.030;2023-12-20T06:33:11;5.20;99.90
3954;DHT22;1991;48.682;9.030;2023-12-20T06:35:36;5.20;99.90
3954;DHT22;1991;48.682;9.030;2023-12-20T06:38:03;5.20;99.90
3954;DHT22;1991;48.682;9.030;2023-12-20T06:40:29;5.20;99.90
3954;DHT22;1991;48.682;9.030;2023-12-20T06:42:55;5.20;99.90
3954;DHT22;1991;48.682;9.030;2023-12-20T06:45:20;5.20;99.90
3954;DHT22;1991;48.682;9.030;2023-12-20T06:47:46;5.20;99.90
3954;DHT22;1991;48.682;9.030;2023-12-20T06:50:11;5.10;99.90
3954;DHT22;1991;48.682;9.030;2023-12-20T06:52:37;5.20;99.90
3954;DHT22;1991;48.682;9.030;2023-12-20T06:55:03;5.10;99.90
3954;DHT22;1991;48.682;9.030;2023-12-20T06:57:29;5.20;99.90
3954;DHT22;1991;48.682;9.030;2023-12-20T06:59:55;5.10;99.90
3954;DHT22;1991;48.682;9.030;2023-12-20T07:02:20;5.20;99.90
3954;DHT22;1991;48.682;9.030;2023-12-20T07:04:47;5.20;99.90
3954;DHT22;1991;48.682;9.030;2023-12-20T07:07:13;5.20;99.90
3954;DHT22;1991;48.682;9.030;2023-12-20T07:09:39;5.20;99.90
3954;DHT22;1991;48.682;9.030;2023-12-20T07:12:06;5.30;99.90
3954;DHT22;1991;48.682;9.030;2023-12-20T07:14:32;5.30;99.90
3954;DHT22;1991;48.682;9.030;2023-12-20T07:16:57;5.20;99.90
3954;DHT22;1991;48.682;9.030;2023-12-20T07:19:23;5.30;99.90
3954;DHT22;1991;48.682;9.030;2023-12-20T07:21:49;5.30;99.90
3954;DHT22;1991;48.682;9.030;2023-12-20T07:24:14;5.30;99.90
3954;DHT22;1991;48.682;9.030;2023-12-20T07:26:40;5.20;99.90
3954;DHT22;1991;48.682;9.030;2023-12-20T07:29:05;5.30;99.90
3954;DHT22;1991;48.682;9.030;2023-12-20T07:31:32;5.30;99.90
3954;DHT22;1991;48.682;9.030;2023-12-20T07:33:57;5.30;99.90
3954;DHT22;1991;48.682;9.030;2023-12-20T07:36:23;5.30;99.90
3954;DHT22;1991;48.682;9.030;2023-12-20T07:38:49;5.30;99.90
3954;DHT22;1991;48.682;9.030;2023-12-20T07:41:14;5.30;99.90
3954;DHT22;1991;48.682;9.030;2023-12-20T07:43:41;5.30;99.90
3954;DHT22;1991;48.682;9.030;2023-12-20T07:46:10;5.30;99.90
3954;DHT22;1991;48.682;9.030;2023-12-20T07:48:36;5.30;99.90
3954;DHT22;1991;48.682;9.030;2023-12-20T07:51:02;5.40;99.90
3954;DHT22;1991;48.682;9.030;2023-12-20T07:53:28;5.30;99.90
3954;DHT22;1991;48.682;9.030;2023-12-20T07:55:53;5.30;99.90
3954;DHT22;1991;48.682;9.030;2023-12-20T07:58:19;5.40;99.90
3954;DHT22;1991;48.682;9.030;2023-12-20T08:00:45;5.40;99.90
3954;DHT22;1991;48.682;9.030;2023-12-20T08:03:10;5.40;99.90
3954;DHT22;1991;48.682;9.030;2023-12-20T08:05:37;5.30;99.90
3954;DHT22;1991;48.682;9.030;2023-12-20T08:08:04;5.30;99.90
3954;DHT22;1991;48.682;9.030;2023-12-20T08:10:30;5.30;99.90
3954;DHT22;1991;48.682;9.030;2023-12-20T08:12:56;5.40;99.90
3954;DHT22;1991;48.682;9.030;2023-12-20T08:15:21;5.40;99.90
3954;DHT22;1991;48.682;9.030;2023-12-20T08:17:47;5.40;99.90
3954;DHT22;1991;48.682;9.030;2023-12-20T08:20:12;5.40;99.90
3954;DHT22;1991;48.682;9.030;2023-12-20T08:22:38;5.40;99.90
3954;DHT22;1991;48.682;9.030;2023-12-20T08:25:04;5.40;99.90
3954;DHT22;1991;48.682;9.030;2023-12-20T08:27:30;5.50;99.90
3954;DHT22;1991;48.682;9.030;2023-12-20T08:29:57;5.40;99.90
3954;DHT22;1991;48.682;9.030;2023-12-20T08:32:25;5.40;99.90
3954;DHT22;1991;48.682;9.030;2023-12-20T08:34:51;5.50;99.90
3954;DHT22;1991;48.682;9.030;2023-12-20T08:37:17;5.50;99.90
3954;DHT22;1991;48.682;9.030;2023-12-20T08:39:43;5.50;99.90
3954;DHT22;1991;48.682;9.030;2023-12-20T08:42:09;5.50;99.90
3954;DHT22;1991;48.682;9.030;2023-12-20T08:44:34;5.50;99.90
3954;DHT22;1991;48.682;9.030;2023-12-20T08:47:00;5.50;99.90
3954;DHT22;1991;48.682;9.030;2023-12-20T08:49:26;5.50;99.90
3954;DHT22;1991;48.682;9.030;2023-12-20T08:51:51;5.50;99.90
3954;DHT22;1991;48.682;9.030;2023-12-20T08:54:17;5.40;99.90
3954;DHT22;1991;48.682;9.030;2023-12-20T08:56:44;5.40;99.90
3954;DHT22;1991;48.682;9.030;2023-12-20T08:59:09;5.30;99.90
3954;DHT22;1991;48.682;9.030;2023-12-20T09:01:35;5.30;99.90
3954;DHT22;1991;48.682;9.030;2023-12-20T09:04:01;5.20;99.90
3954;DHT22;1991;48.682;9.030;2023-12-20T09:06:26;5.20;99.90
3954;DHT22;1991;48.682;9.030;2023-12-20T09:08:52;5.30;99.90
3954;DHT22;1991;48.682;9.030;2023-12-20T09:11:17;5.40;99.90
3954;DHT22;1991;48.682;9.030;2023-12-20T09:13:43;5.50;99.90
3954;DHT22;1991;48.682;9.030;2023-12-20T09:16:09;6.00;99.90
3954;DHT22;1991;48.682;9.030;2023-12-20T09:18:35;7.30;99.90
3954;DHT22;1991;48.682;9.030;2023-12-20T09:21:00;8.20;99.90
3954;DHT22;1991;48.682;9.030;2023-12-20T09:23:27;8.20;99.90
3954;DHT22;1991;48.682;9.030;2023-12-20T09:25:53;8.40;99.90
3954;DHT22;1991;48.682;9.030;2023-12-20T09:28:18;7.70;99.90
3954;DHT22;1991;48.682;9.030;2023-12-20T09:30:44;7.20;99.90
3954;DHT22;1991;48.682;9.030;2023-12-20T09:33:11;8.90;99.90
3954;DHT22;1991;48.682;9.030;2023-12-20T09:35:37;13.50;97.90
3954;DHT22;1991;48.682;9.030;2023-12-20T09:38:02;17.00;79.00
3954;DHT22;1991;48.682;9.030;2023-12-20T09:40:29;19.40;65.20
3954;DHT22;1991;48.682;9.030;2023-12-20T09:42:58;21.50;58.50
3954;DHT22;1991;48.682;9.030;2023-12-20T09:45:25;23.10;52.80
3954;DHT22;1991;48.682;9.030;2023-12-20T09:47:53;22.20;49.00
3954;DHT22;1991;48.682;9.030;2023-12-20T09:50:21;20.40;53.20
3954;DHT22;1991;48.682;9.030;2023-12-20T09:52:50;18.00;54.70
3954;DHT22;1991;48.682;9.030;2023-12-20T09:55:20;15.80;59.60
3954;DHT22;1991;48.682;9.030;2023-12-20T09:57:49;15.40;60.80
3954;DHT22;1991;48.682;9.030;2023-12-20T10:00:15;19.40;58.50
3954;DHT22;1991;48.682;9.030;2023-12-20T10:03:00;22.30;53.10
3954;DHT22;1991;48.682;9.030;2023-12-20T10:05:30;25.20;47.40
3954;DHT22;1991;48.682;9.030;2023-12-20T10:07:56;26.90;44.60
3954;DHT22;1991;48.682;9.030;2023-12-20T10:10:22;28.50;41.10
3954;DHT22;1991;48.682;9.030;2023-12-20T10:13:08;26.20;42.30
3954;DHT22;1991;48.682;9.030;2023-12-20T10:15:34;25.60;40.40
3954;DHT22;1991;48.682;9.030;2023-12-20T10:18:01;21.20;44.80
3954;DHT22;1991;48.682;9.030;2023-12-20T10:20:27;17.50;50.20
3954;DHT22;1991;48.682;9.030;2023-12-20T10:22:55;14.40;55.60
3954;DHT22;1991;48.682;9.030;2023-12-20T10:25:21;12.20;62.90
3954;DHT22;1991;48.682;9.030;2023-12-20T10:27:47;11.10;67.80
3954;DHT22;1991;48.682;9.030;2023-12-20T10:30:13;10.20;70.30
3954;DHT22;1991;48.682;9.030;2023-12-20T10:32:39;9.40;74.20
3954;DHT22;1991;48.682;9.030;2023-12-20T10:35:06;8.90;77.50
3954;DHT22;1991;48.682;9.030;2023-12-20T10:37:36;8.50;80.00
3954;DHT22;1991;48.682;9.030;2023-12-20T10:40:04;8.10;82.10
3954;DHT22;1991;48.682;9.030;2023-12-20T10:42:31;7.80;85.20
3954;DHT22;1991;48.682;9.030;2023-12-20T10:44:59;7.40;88.90
3954;DHT22;1991;48.682;9.030;2023-12-20T10:47:25;7.10;91.60
3954;DHT22;1991;48.682;9.030;2023-12-20T10:49:52;7.10;94.00
3954;DHT22;1991;48.682;9.030;2023-12-20T10:52:18;7.10;93.70
3954;DHT22;1991;48.682;9.030;2023-12-20T10:54:45;7.10;95.90
3954;DHT22;1991;48.682;9.030;2023-12-20T10:57:11;7.10;97.20
3954;DHT22;1991;48.682;9.030;2023-12-20T10:59:37;7.20;98.20
3954;DHT22;1991;48.682;9.030;2023-12-20T11:02:04;7.20;98.10
3954;DHT22;1991;48.682;9.030;2023-12-20T11:07:21;7.20;97.30
3954;DHT22;1991;48.682;9.030;2023-12-20T11:10:00;7.30;96.70
3954;DHT22;1991;48.682;9.030;2023-12-20T11:12:40;7.50;96.20
3954;DHT22;1991;48.682;9.030;2023-12-20T11:15:10;7.30;95.50
3954;DHT22;1991;48.682;9.030;2023-12-20T11:17:35;7.10;95.00
3954;DHT22;1991;48.682;9.030;2023-12-20T11:20:05;7.00;96.50
3954;DHT22;1991;48.682;9.030;2023-12-20T11:22:32;7.00;97.10
3954;DHT22;1991;48.682;9.030;2023-12-20T11:25:15;7.10;96.30
3954;DHT22;1991;48.682;9.030;2023-12-20T11:27:42;7.60;95.70
3954;DHT22;1991;48.682;9.030;2023-12-20T11:30:09;7.80;95.00
3954;DHT22;1991;48.682;9.030;2023-12-20T11:32:38;7.90;94.10
3954;DHT22;1991;48.682;9.030;2023-12-20T11:37:38;7.20;94.50
3954;DHT22;1991;48.682;9.030;2023-12-20T11:40:11;6.80;94.90
3954;DHT22;1991;48.682;9.030;2023-12-20T11:42:41;6.50;94.40
3954;DHT22;1991;48.682;9.030;2023-12-20T11:45:14;6.30;94.90
3954;DHT22;1991;48.682;9.030;2023-12-20T11:47:42;6.20;95.90
3954;DHT22;1991;48.682;9.030;2023-12-20T11:50:09;6.30;95.90
3954;DHT22;1991;48.682;9.030;2023-12-20T11:52:35;6.30;95.60
3954;DHT22;1991;48.682;9.030;2023-12-20T11:55:00;6.30;96.20
3954;DHT22;1991;48.682;9.030;2023-12-20T11:57:26;6.20;96.20
3954;DHT22;1991;48.682;9.030;2023-12-20T11:59:52;6.10;96.70
3954;DHT22;1991;48.682;9.030;2023-12-20T12:02:17;5.90;97.90
3954;DHT22;1991;48.682;9.030;2023-12-20T12:04:43;5.90;98.90
3954;DHT22;1991;48.682;9.030;2023-12-20T12:07:08;5.80;99.20
3954;DHT22;1991;48.682;9.030;2023-12-20T12:09:34;5.70;99.70
3954;DHT22;1991;48.682;9.030;2023-12-20T12:12:00;5.70;99.90
3954;DHT22;1991;48.682;9.030;2023-12-20T12:14:26;5.80;99.90
3954;DHT22;1991;48.682;9.030;2023-12-20T12:16:52;6.00;99.90
3954;DHT22;1991;48.682;9.030;2023-12-20T12:19:22;6.00;99.90
3954;DHT22;1991;48.682;9.030;2023-12-20T12:21:51;6.00;99.90
3954;DHT22;1991;48.682;9.030;2023-12-20T12:24:29;6.00;99.90
3954;DHT22;1991;48.682;9.030;2023-12-20T12:26:57;6.10;99.90
3954;DHT22;1991;48.682;9.030;2023-12-20T12:29:23;6.10;99.40
3954;DHT22;1991;48.682;9.030;2023-12-20T12:31:50;6.10;99.60
3954;DHT22;1991;48.682;9.030;2023-12-20T12:34:16;6.20;99.80
3954;DHT22;1991;48.682;9.030;2023-12-20T12:36:43;6.30;99.60
3954;DHT22;1991;48.682;9.030;2023-12-20T12:39:09;6.20;99.90
3954;DHT22;1991;48.682;9.030;2023-12-20T12:41:37;6.20;99.30
3954;DHT22;1991;48.682;9.030;2023-12-20T12:44:02;6.30;99.10
3954;DHT22;1991;48.682;9.030;2023-12-20T12:46:28;6.30;98.90
3954;DHT22;1991;48.682;9.030;2023-12-20T12:48:54;6.30;99.10
3954;DHT22;1991;48.682;9.030;2023-12-20T12:51:20;6.60;98.70
3954;DHT22;1991;48.682;9.030;2023-12-20T12:53:45;8.60;95.10
3954;DHT22;1991;48.682;9.030;2023-12-20T12:56:12;8.20;93.40
3954;DHT22;1991;48.682;9.030;2023-12-20T12:58:39;7.80;93.00
3954;DHT22;1991;48.682;9.030;2023-12-20T13:01:04;7.40;94.20
3954;DHT22;1991;48.682;9.030;2023-12-20T13:03:30;7.20;95.00
3954;DHT22;1991;48.682;9.030;2023-12-20T13:05:56;7.00;95.60
3954;DHT22;1991;48.682;9.030;2023-12-20T13:08:21;7.00;96.60
3954;DHT22;1991;48.682;9.030;2023-12-20T13:10:47;6.90;96.20
3954;DHT22;1991;48.682;9.030;2023-12-20T13:13:13;6.80;96.40
3954;DHT22;1991;48.682;9.030;2023-12-20T13:15:38;6.70;97.40
3954;DHT22;1991;48.682;9.030;2023-12-20T13:18:04;6.70;97.70
3954;DHT22;1991;48.682;9.030;2023-12-20T13:20:31;6.80;98.00
3954;DHT22;1991;48.682;9.030;2023-12-20T13:22:57;6.80;97.90
3954;DHT22;1991;48.682;9.030;2023-12-20T13:25:22;6.80;97.10
3954;DHT22;1991;48.682;9.030;2023-12-20T13:27:49;7.70;95.70
3954;DHT22;1991;48.682;9.030;2023-12-20T13:30:16;9.00;92.50
3954;DHT22;1991;48.682;9.030;2023-12-20T13:32:42;9.10;91.30
3954;DHT22;1991;48.682;9.030;2023-12-20T13:35:08;8.60;91.00
3954;DHT22;1991;48.682;9.030;2023-12-20T13:37:34;8.00;92.10
3954;DHT22;1991;48.682;9.030;2023-12-20T13:40:00;7.60;93.30
3954;DHT22;1991;48.682;9.030;2023-12-20T13:42:26;9.60;93.20
3954;DHT22;1991;48.682;9.030;2023-12-20T13:44:53;10.90;86.80
3954;DHT22;1991;48.682;9.030;2023-12-20T13:47:19;10.40;83.10
3954;DHT22;1991;48.682;9.030;2023-12-20T13:49:45;9.50;85.50
3954;DHT22;1991;48.682;9.030;2023-12-20T13:52:10;8.70;89.20
3954;DHT22;1991;48.682;9.030;2023-12-20T13:54:37;8.20;91.30
3954;DHT22;1991;48.682;9.030;2023-12-20T13:57:03;7.50;92.20
3954;DHT22;1991;48.682;9.030;2023-12-20T13:59:28;7.00;93.60
3954;DHT22;1991;48.682;9.030;2023-12-20T14:01:54;6.60;95.50
3954;DHT22;1991;48.682;9.030;2023-12-20T14:04:20;6.30;96.80
3954;DHT22;1991;48.682;9.030;2023-12-20T14:06:47;6.10;98.40
3954;DHT22;1991;48.682;9.030;2023-12-20T14:09:12;6.00;99.50
3954;DHT22;1991;48.682;9.030;2023-12-20T14:11:38;5.90;99.90
3954;DHT22;1991;48.682;9.030;2023-12-20T14:14:07;5.90;99.90
3954;DHT22;1991;48.682;9.030;2023-12-20T14:16:36;5.80;99.90
3954;DHT22;1991;48.682;9.030;2023-12-20T14:19:01;5.80;99.90
3954;DHT22;1991;48.682;9.030;2023-12-20T14:21:28;5.80;99.90
3954;DHT22;1991;48.682;9.030;2023-12-20T14:23:54;5.70;99.90
3954;DHT22;1991;48.682;9.030;2023-12-20T14:26:19;5.70;99.90
3954;DHT22;1991;48.682;9.030;2023-12-20T14:28:45;5.60;99.90
3954;DHT22;1991;48.682;9.030;2023-12-20T14:31:11;5.60;99.90
3954;DHT22;1991;48.682;9.030;2023-12-20T14:33:37;5.60;99.90
3954;DHT22;1991;48.682;9.030;2023-12-20T14:36:05;5.50;99.90
3954;DHT22;1991;48.682;9.030;2023-12-20T14:38:31;5.50;99.90
3954;DHT22;1991;48.682;9.030;2023-12-20T14:40:57;5.40;99.90
3954;DHT22;1991;48.682;9.030;2023-12-20T14:43:23;5.30;99.90
3954;DHT22;1991;48.682;9.030;2023-12-20T14:45:48;5.20;99.90
3954;DHT22;1991;48.682;9.030;2023-12-20T14:48:14;5.20;99.90
3954;DHT22;1991;48.682;9.030;2023-12-20T14:50:39;5.10;99.90
3954;DHT22;1991;48.682;9.030;2023-12-20T14:53:08;5.10;99.90
3954;DHT22;1991;48.682;9.030;2023-12-20T14:55:34;5.00;99.90
3954;DHT22;1991;48.682;9.030;2023-12-20T14:57:59;5.10;99.90
3954;DHT22;1991;48.682;9.030;2023-12-20T15:00:26;5.00;99.90
3954;DHT22;1991;48.682;9.030;2023-12-20T15:02:52;4.90;99.90
3954;DHT22;1991;48.682;9.030;2023-12-20T15:05:20;4.90;99.90
3954;DHT22;1991;48.682;9.030;2023-12-20T15:07:45;4.90;99.90
3954;DHT22;1991;48.682;9.030;2023-12-20T15:10:13;4.90;99.90
3954;DHT22;1991;48.682;9.030;2023-12-20T15:12:39;4.80;99.90
3954;DHT22;1991;48.682;9.030;2023-12-20T15:15:05;4.80;99.90
3954;DHT22;1991;48.682;9.030;2023-12-20T15:17:31;4.80;99.90
3954;DHT22;1991;48.682;9.030;2023-12-20T15:19:56;4.80;99.90
3954;DHT22;1991;48.682;9.030;2023-12-20T15:22:22;4.70;99.90
3954;DHT22;1991;48.682;9.030;2023-12-20T15:24:47;4.70;99.90
3954;DHT22;1991;48.682;9.030;2023-12-20T15:27:13;4.70;99.90
3954;DHT22;1991;48.682;9.030;2023-12-20T15:29:39;4.60;99.90
3954;DHT22;1991;48.682;9.030;2023-12-20T15:32:05;4.60;99.90
3954;DHT22;1991;48.682;9.030;2023-12-20T15:34:30;4.60;99.90
3954;DHT22;1991;48.682;9.030;2023-12-20T15:36:57;4.50;99.90
3954;DHT22;1991;48.682;9.030;2023-12-20T15:39:22;4.50;99.90
3954;DHT22;1991;48.682;9.030;2023-12-20T15:41:48;4.50;99.90
3954;DHT22;1991;48.682;9.030;2023-12-20T15:44:15;4.50;99.90
3954;DHT22;1991;48.682;9.030;2023-12-20T15:46:41;4.50;99.90
3954;DHT22;1991;48.682;9.030;2023-12-20T15:49:08;4.50;99.90
3954;DHT22;1991;48.682;9.030;2023-12-20T15:51:36;4.50;99.90
3954;DHT22;1991;48.682;9.030;2023-12-20T15:54:02;4.40;99.90
3954;DHT22;1991;48.682;9.030;2023-12-20T15:56:34;4.40;99.90
3954;DHT22;1991;48.682;9.030;2023-12-20T15:59:02;4.40;99.90
3954;DHT22;1991;48.682;9.030;2023-12-20T16:01:29;4.40;99.90
3954;DHT22;1991;48.682;9.030;2023-12-20T16:03:56;4.40;99.90
3954;DHT22;1991;48.682;9.030;2023-12-20T16:06:21;4.50;99.90
3954;DHT22;1991;48.682;9.030;2023-12-20T16:08:47;4.40;99.90
3954;DHT22;1991;48.682;9.030;2023-12-20T16:11:13;4.40;99.90
3954;DHT22;1991;48.682;9.030;2023-12-20T16:13:38;4.40;99.90
3954;DHT22;1991;48.682;9.030;2023-12-20T16:16:04;4.40;99.90